Disclaimer

Please do not use the information listed here in-flight or in-navigation, as they are not provided to us by the airports but are provided by volunteers, so they might be outdated.

Search


Regions


Airport information page

Radio informations:
TARIJA TWR - 118.1 MHz
TARIJA RDO - 6622 MHz
TARIJA APP - 119.4 MHz

Airport informations:
Latitude: 21° 33' 20.65" S
Longitude: 064° 42' 04.77" W
Elevation: 6084 feet - 1854 meters
Operating hours: Remarks
Operating agency: Military-civil joint use airport
Timezone: UTC-4
Fuel: Jet A1, without icing nhibitor.

100/130 MIL Spec, low lead, aviation gasoline (BLUE)

Runway information:
13/31 - 10007 x 148 feet< - >3050 x 45 meters

Recent METARs:
SLTJ 190100Z 21004KT 3500NW -RADZ SCT013 BKN020 OVC070 13/12 Q1026
SLTJ 190100Z 21004KT 3500NW -RADZ SCT013 BKN020 OVC070 13/12 Q1026
SLTJ 190200Z 00000KT 9999 FEW010 BKN020 OVC070 13/11 Q1026

Airport on the map: